sensor_id;sensor_type;location;lat;lon;timestamp;P1;durP1;ratioP1;P2;durP2;ratioP2
43986;SDS011;29650;47.378;8.300;2022-10-31T00:02:05;12.57;;;6.97;;
43986;SDS011;29650;47.378;8.300;2022-10-31T00:04:31;13.60;;;7.13;;
43986;SDS011;29650;47.378;8.300;2022-10-31T00:07:00;39.22;;;8.13;;
43986;SDS011;29650;47.378;8.300;2022-10-31T00:09:27;8.73;;;6.03;;
43986;SDS011;29650;47.378;8.300;2022-10-31T00:11:54;11.23;;;6.78;;
43986;SDS011;29650;47.378;8.300;2022-10-31T00:14:21;12.60;;;7.18;;
43986;SDS011;29650;47.378;8.300;2022-10-31T00:16:48;14.57;;;7.03;;
43986;SDS011;29650;47.378;8.300;2022-10-31T00:19:15;19.40;;;7.90;;
43986;SDS011;29650;47.378;8.300;2022-10-31T00:21:42;14.45;;;8.10;;
43986;SDS011;29650;47.378;8.300;2022-10-31T00:24:11;17.52;;;8.10;;
43986;SDS011;29650;47.378;8.300;2022-10-31T00:26:38;14.20;;;7.10;;
43986;SDS011;29650;47.378;8.300;2022-10-31T00:29:05;14.25;;;8.18;;
43986;SDS011;29650;47.378;8.300;2022-10-31T00:31:31;14.30;;;7.88;;
43986;SDS011;29650;47.378;8.300;2022-10-31T00:33:58;26.77;;;7.72;;
43986;SDS011;29650;47.378;8.300;2022-10-31T00:36:27;15.75;;;7.55;;
43986;SDS011;29650;47.378;8.300;2022-10-31T00:38:54;8.55;;;6.75;;
43986;SDS011;29650;47.378;8.300;2022-10-31T00:41:23;11.50;;;6.22;;
43986;SDS011;29650;47.378;8.300;2022-10-31T00:43:50;16.25;;;8.65;;
43986;SDS011;29650;47.378;8.300;2022-10-31T00:46:17;12.73;;;7.05;;
43986;SDS011;29650;47.378;8.300;2022-10-31T00:48:44;13.07;;;7.20;;
43986;SDS011;29650;47.378;8.300;2022-10-31T00:51:11;12.13;;;6.47;;
43986;SDS011;29650;47.378;8.300;2022-10-31T00:53:38;12.70;;;7.05;;
43986;SDS011;29650;47.378;8.300;2022-10-31T00:56:05;10.80;;;7.60;;
43986;SDS011;29650;47.378;8.300;2022-10-31T00:58:34;10.63;;;7.22;;
43986;SDS011;29650;47.378;8.300;2022-10-31T01:01:01;16.77;;;7.25;;
43986;SDS011;29650;47.378;8.300;2022-10-31T01:03:29;13.40;;;6.68;;
43986;SDS011;29650;47.378;8.300;2022-10-31T01:06:00;18.35;;;7.63;;
43986;SDS011;29650;47.378;8.300;2022-10-31T01:08:28;15.93;;;7.53;;
43986;SDS011;29650;47.378;8.300;2022-10-31T01:10:59;12.07;;;7.30;;
43986;SDS011;29650;47.378;8.300;2022-10-31T01:13:32;12.57;;;6.63;;
43986;SDS011;29650;47.378;8.300;2022-10-31T01:16:01;19.17;;;7.80;;
43986;SDS011;29650;47.378;8.300;2022-10-31T01:18:29;18.98;;;8.00;;
43986;SDS011;29650;47.378;8.300;2022-10-31T01:20:57;20.60;;;8.05;;
43986;SDS011;29650;47.378;8.300;2022-10-31T01:23:25;15.48;;;7.07;;
43986;SDS011;29650;47.378;8.300;2022-10-31T01:25:58;33.13;;;8.23;;
43986;SDS011;29650;47.378;8.300;2022-10-31T01:28:35;52.35;;;8.02;;
43986;SDS011;29650;47.378;8.300;2022-10-31T01:31:03;27.42;;;8.00;;
43986;SDS011;29650;47.378;8.300;2022-10-31T01:35:59;15.80;;;6.85;;
43986;SDS011;29650;47.378;8.300;2022-10-31T01:38:26;22.67;;;7.53;;
43986;SDS011;29650;47.378;8.300;2022-10-31T01:40:53;25.13;;;8.30;;
43986;SDS011;29650;47.378;8.300;2022-10-31T01:43:20;11.32;;;7.50;;
43986;SDS011;29650;47.378;8.300;2022-10-31T01:45:50;16.38;;;7.32;;
43986;SDS011;29650;47.378;8.300;2022-10-31T01:48:20;19.58;;;7.63;;
43986;SDS011;29650;47.378;8.300;2022-10-31T01:50:51;10.35;;;6.10;;
43986;SDS011;29650;47.378;8.300;2022-10-31T01:53:20;9.95;;;5.57;;
43986;SDS011;29650;47.378;8.300;2022-10-31T01:55:48;11.10;;;6.38;;
43986;SDS011;29650;47.378;8.300;2022-10-31T01:58:16;13.63;;;5.82;;
43986;SDS011;29650;47.378;8.300;2022-10-31T02:00:51;10.40;;;6.50;;
43986;SDS011;29650;47.378;8.300;2022-10-31T02:03:22;9.18;;;6.03;;
43986;SDS011;29650;47.378;8.300;2022-10-31T02:05:49;13.93;;;5.85;;
43986;SDS011;29650;47.378;8.300;2022-10-31T02:08:18;7.97;;;5.63;;
43986;SDS011;29650;47.378;8.300;2022-10-31T02:10:50;10.75;;;6.35;;
43986;SDS011;29650;47.378;8.300;2022-10-31T02:13:17;6.80;;;5.43;;
43986;SDS011;29650;47.378;8.300;2022-10-31T02:15:45;9.27;;;5.72;;
43986;SDS011;29650;47.378;8.300;2022-10-31T02:18:17;8.05;;;5.43;;
43986;SDS011;29650;47.378;8.300;2022-10-31T02:23:35;22.45;;;6.47;;
43986;SDS011;29650;47.378;8.300;2022-10-31T02:26:32;9.65;;;5.53;;
43986;SDS011;29650;47.378;8.300;2022-10-31T02:29:19;8.50;;;5.32;;
43986;SDS011;29650;47.378;8.300;2022-10-31T02:32:09;8.48;;;5.60;;
43986;SDS011;29650;47.378;8.300;2022-10-31T02:34:42;12.90;;;6.15;;
43986;SDS011;29650;47.378;8.300;2022-10-31T02:37:17;8.30;;;6.07;;
43986;SDS011;29650;47.378;8.300;2022-10-31T02:39:52;9.95;;;6.05;;
43986;SDS011;29650;47.378;8.300;2022-10-31T02:42:25;8.93;;;5.35;;
43986;SDS011;29650;47.378;8.300;2022-10-31T02:45:00;13.13;;;5.07;;
43986;SDS011;29650;47.378;8.300;2022-10-31T02:47:35;15.05;;;5.78;;
43986;SDS011;29650;47.378;8.300;2022-10-31T02:50:04;7.70;;;5.57;;
43986;SDS011;29650;47.378;8.300;2022-10-31T02:52:35;9.27;;;5.78;;
43986;SDS011;29650;47.378;8.300;2022-10-31T02:55:09;12.00;;;5.88;;
43986;SDS011;29650;47.378;8.300;2022-10-31T02:57:37;8.25;;;5.85;;
43986;SDS011;29650;47.378;8.300;2022-10-31T03:00:06;7.28;;;5.55;;
43986;SDS011;29650;47.378;8.300;2022-10-31T03:02:47;8.75;;;5.60;;
43986;SDS011;29650;47.378;8.300;2022-10-31T03:05:28;10.23;;;6.00;;
43986;SDS011;29650;47.378;8.300;2022-10-31T03:08:06;6.30;;;5.32;;
43986;SDS011;29650;47.378;8.300;2022-10-31T03:10:39;5.57;;;4.93;;
43986;SDS011;29650;47.378;8.300;2022-10-31T03:13:12;8.02;;;5.40;;
43986;SDS011;29650;47.378;8.300;2022-10-31T03:15:47;9.30;;;5.15;;
43986;SDS011;29650;47.378;8.300;2022-10-31T03:18:19;9.02;;;6.28;;
43986;SDS011;29650;47.378;8.300;2022-10-31T03:20:52;11.95;;;5.75;;
43986;SDS011;29650;47.378;8.300;2022-10-31T03:23:22;9.40;;;5.00;;
43986;SDS011;29650;47.378;8.300;2022-10-31T03:25:51;7.03;;;5.68;;
43986;SDS011;29650;47.378;8.300;2022-10-31T03:28:22;14.60;;;5.57;;
43986;SDS011;29650;47.378;8.300;2022-10-31T03:30:54;10.88;;;5.30;;
43986;SDS011;29650;47.378;8.300;2022-10-31T03:33:25;10.07;;;6.20;;
43986;SDS011;29650;47.378;8.300;2022-10-31T03:35:57;11.88;;;5.90;;
43986;SDS011;29650;47.378;8.300;2022-10-31T03:38:26;16.90;;;6.32;;
43986;SDS011;29650;47.378;8.300;2022-10-31T03:40:54;32.97;;;7.65;;
43986;SDS011;29650;47.378;8.300;2022-10-31T03:43:26;20.77;;;7.05;;
43986;SDS011;29650;47.378;8.300;2022-10-31T03:45:56;19.83;;;8.00;;
43986;SDS011;29650;47.378;8.300;2022-10-31T03:48:25;10.55;;;7.10;;
43986;SDS011;29650;47.378;8.300;2022-10-31T03:50:55;10.43;;;6.45;;
43986;SDS011;29650;47.378;8.300;2022-10-31T03:53:31;9.60;;;6.47;;
43986;SDS011;29650;47.378;8.300;2022-10-31T03:56:02;15.82;;;6.75;;
43986;SDS011;29650;47.378;8.300;2022-10-31T03:58:33;10.02;;;5.90;;
43986;SDS011;29650;47.378;8.300;2022-10-31T04:01:05;10.63;;;5.40;;
43986;SDS011;29650;47.378;8.300;2022-10-31T04:03:36;8.80;;;6.10;;
43986;SDS011;29650;47.378;8.300;2022-10-31T04:06:05;12.25;;;6.88;;
43986;SDS011;29650;47.378;8.300;2022-10-31T04:08:36;8.05;;;5.50;;
43986;SDS011;29650;47.378;8.300;2022-10-31T04:11:06;13.07;;;6.13;;
43986;SDS011;29650;47.378;8.300;2022-10-31T04:13:35;18.67;;;6.55;;
43986;SDS011;29650;47.378;8.300;2022-10-31T04:16:05;11.57;;;6.75;;
43986;SDS011;29650;47.378;8.300;2022-10-31T04:18:32;7.88;;;5.68;;
43986;SDS011;29650;47.378;8.300;2022-10-31T04:21:01;9.77;;;5.82;;
43986;SDS011;29650;47.378;8.300;2022-10-31T04:23:31;10.70;;;6.03;;
43986;SDS011;29650;47.378;8.300;2022-10-31T04:25:58;6.88;;;5.53;;
43986;SDS011;29650;47.378;8.300;2022-10-31T04:28:25;9.50;;;6.22;;
43986;SDS011;29650;47.378;8.300;2022-10-31T04:30:52;8.38;;;5.50;;
43986;SDS011;29650;47.378;8.300;2022-10-31T04:33:19;16.70;;;6.88;;
43986;SDS011;29650;47.378;8.300;2022-10-31T04:35:47;7.75;;;5.28;;
43986;SDS011;29650;47.378;8.300;2022-10-31T04:38:15;9.38;;;5.25;;
43986;SDS011;29650;47.378;8.300;2022-10-31T04:40:42;14.32;;;6.38;;
43986;SDS011;29650;47.378;8.300;2022-10-31T04:43:09;10.90;;;5.97;;
43986;SDS011;29650;47.378;8.300;2022-10-31T04:45:36;10.98;;;6.00;;
43986;SDS011;29650;47.378;8.300;2022-10-31T04:48:03;9.30;;;5.40;;
43986;SDS011;29650;47.378;8.300;2022-10-31T04:50:30;12.93;;;5.85;;
43986;SDS011;29650;47.378;8.300;2022-10-31T04:52:57;7.03;;;5.43;;
43986;SDS011;29650;47.378;8.300;2022-10-31T04:55:26;9.82;;;5.80;;
43986;SDS011;29650;47.378;8.300;2022-10-31T04:57:53;8.38;;;6.15;;
43986;SDS011;29650;47.378;8.300;2022-10-31T05:00:20;11.85;;;5.57;;
43986;SDS011;29650;47.378;8.300;2022-10-31T05:02:48;18.93;;;6.93;;
43986;SDS011;29650;47.378;8.300;2022-10-31T05:05:17;10.80;;;6.00;;
43986;SDS011;29650;47.378;8.300;2022-10-31T05:07:46;8.40;;;5.30;;
43986;SDS011;29650;47.378;8.300;2022-10-31T05:10:14;10.02;;;5.65;;
43986;SDS011;29650;47.378;8.300;2022-10-31T05:12:49;6.95;;;5.15;;
43986;SDS011;29650;47.378;8.300;2022-10-31T05:15:17;11.50;;;4.68;;
43986;SDS011;29650;47.378;8.300;2022-10-31T05:17:44;8.73;;;5.20;;
43986;SDS011;29650;47.378;8.300;2022-10-31T05:20:12;13.70;;;5.10;;
43986;SDS011;29650;47.378;8.300;2022-10-31T05:22:41;13.35;;;5.72;;
43986;SDS011;29650;47.378;8.300;2022-10-31T05:25:09;12.00;;;5.63;;
43986;SDS011;29650;47.378;8.300;2022-10-31T05:27:38;17.83;;;6.25;;
43986;SDS011;29650;47.378;8.300;2022-10-31T05:30:07;10.52;;;6.78;;
43986;SDS011;29650;47.378;8.300;2022-10-31T05:32:36;6.93;;;5.15;;
43986;SDS011;29650;47.378;8.300;2022-10-31T05:35:04;7.82;;;5.15;;
43986;SDS011;29650;47.378;8.300;2022-10-31T05:37:33;7.95;;;5.68;;
43986;SDS011;29650;47.378;8.300;2022-10-31T05:40:00;12.32;;;4.70;;
43986;SDS011;29650;47.378;8.300;2022-10-31T05:42:27;20.83;;;5.72;;
43986;SDS011;29650;47.378;8.300;2022-10-31T05:44:54;7.63;;;5.05;;
43986;SDS011;29650;47.378;8.300;2022-10-31T05:47:22;12.82;;;6.40;;
43986;SDS011;29650;47.378;8.300;2022-10-31T05:49:49;10.15;;;5.38;;
43986;SDS011;29650;47.378;8.300;2022-10-31T05:52:16;8.80;;;5.88;;
43986;SDS011;29650;47.378;8.300;2022-10-31T05:54:44;9.43;;;5.05;;
43986;SDS011;29650;47.378;8.300;2022-10-31T05:57:11;10.82;;;5.53;;
43986;SDS011;29650;47.378;8.300;2022-10-31T05:59:37;28.92;;;5.88;;
43986;SDS011;29650;47.378;8.300;2022-10-31T06:02:04;6.85;;;5.30;;
43986;SDS011;29650;47.378;8.300;2022-10-31T06:04:33;8.55;;;6.10;;
43986;SDS011;29650;47.378;8.300;2022-10-31T06:07:00;12.52;;;5.75;;
43986;SDS011;29650;47.378;8.300;2022-10-31T06:09:27;6.80;;;5.38;;
43986;SDS011;29650;47.378;8.300;2022-10-31T06:11:53;13.43;;;5.70;;
43986;SDS011;29650;47.378;8.300;2022-10-31T06:14:20;8.77;;;4.72;;
43986;SDS011;29650;47.378;8.300;2022-10-31T06:16:47;7.32;;;5.13;;
43986;SDS011;29650;47.378;8.300;2022-10-31T06:19:14;7.55;;;5.45;;
43986;SDS011;29650;47.378;8.300;2022-10-31T06:21:42;14.18;;;5.72;;
43986;SDS011;29650;47.378;8.300;2022-10-31T06:24:09;45.58;;;6.45;;
43986;SDS011;29650;47.378;8.300;2022-10-31T06:26:36;9.48;;;5.32;;
43986;SDS011;29650;47.378;8.300;2022-10-31T06:29:03;17.33;;;6.10;;
43986;SDS011;29650;47.378;8.300;2022-10-31T06:31:30;9.73;;;5.43;;
43986;SDS011;29650;47.378;8.300;2022-10-31T06:33:57;8.40;;;4.75;;
43986;SDS011;29650;47.378;8.300;2022-10-31T06:36:24;5.13;;;4.45;;
43986;SDS011;29650;47.378;8.300;2022-10-31T06:38:52;14.10;;;5.53;;
43986;SDS011;29650;47.378;8.300;2022-10-31T06:41:19;6.88;;;4.78;;
43986;SDS011;29650;47.378;8.300;2022-10-31T06:43:46;8.80;;;4.45;;
43986;SDS011;29650;47.378;8.300;2022-10-31T06:46:13;7.60;;;6.07;;
43986;SDS011;29650;47.378;8.300;2022-10-31T06:48:40;8.75;;;5.88;;
43986;SDS011;29650;47.378;8.300;2022-10-31T06:51:07;8.95;;;5.82;;
43986;SDS011;29650;47.378;8.300;2022-10-31T06:53:34;18.02;;;6.00;;
43986;SDS011;29650;47.378;8.300;2022-10-31T06:56:03;14.48;;;6.05;;
43986;SDS011;29650;47.378;8.300;2022-10-31T06:58:30;9.68;;;5.72;;
43986;SDS011;29650;47.378;8.300;2022-10-31T07:00:58;7.60;;;5.38;;
43986;SDS011;29650;47.378;8.300;2022-10-31T07:03:26;9.25;;;5.75;;
43986;SDS011;29650;47.378;8.300;2022-10-31T07:05:54;9.98;;;6.22;;
43986;SDS011;29650;47.378;8.300;2022-10-31T07:08:21;7.13;;;5.30;;
43986;SDS011;29650;47.378;8.300;2022-10-31T07:10:51;7.70;;;5.50;;
43986;SDS011;29650;47.378;8.300;2022-10-31T07:13:20;7.07;;;5.57;;
43986;SDS011;29650;47.378;8.300;2022-10-31T07:15:51;9.68;;;5.93;;
43986;SDS011;29650;47.378;8.300;2022-10-31T07:18:18;10.68;;;5.85;;
43986;SDS011;29650;47.378;8.300;2022-10-31T07:20:46;8.77;;;5.55;;
43986;SDS011;29650;47.378;8.300;2022-10-31T07:23:13;8.75;;;6.30;;
43986;SDS011;29650;47.378;8.300;2022-10-31T07:25:40;16.83;;;6.13;;
43986;SDS011;29650;47.378;8.300;2022-10-31T07:28:07;8.30;;;5.35;;
43986;SDS011;29650;47.378;8.300;2022-10-31T07:30:36;10.63;;;6.05;;
43986;SDS011;29650;47.378;8.300;2022-10-31T07:33:03;27.92;;;6.63;;
43986;SDS011;29650;47.378;8.300;2022-10-31T07:35:31;10.63;;;5.63;;
43986;SDS011;29650;47.378;8.300;2022-10-31T07:38:06;8.38;;;5.43;;
43986;SDS011;29650;47.378;8.300;2022-10-31T07:40:33;11.25;;;6.32;;
43986;SDS011;29650;47.378;8.300;2022-10-31T07:43:01;12.98;;;6.75;;
43986;SDS011;29650;47.378;8.300;2022-10-31T07:45:27;7.38;;;5.43;;
43986;SDS011;29650;47.378;8.300;2022-10-31T07:47:56;24.70;;;7.88;;
43986;SDS011;29650;47.378;8.300;2022-10-31T07:50:23;10.43;;;5.70;;
43986;SDS011;29650;47.378;8.300;2022-10-31T07:52:58;10.73;;;6.65;;
43986;SDS011;29650;47.378;8.300;2022-10-31T07:55:26;8.15;;;5.45;;
43986;SDS011;29650;47.378;8.300;2022-10-31T07:57:57;8.07;;;5.70;;
43986;SDS011;29650;47.378;8.300;2022-10-31T08:00:25;10.45;;;5.97;;
43986;SDS011;29650;47.378;8.300;2022-10-31T08:03:00;10.52;;;5.63;;
43986;SDS011;29650;47.378;8.300;2022-10-31T08:05:28;7.70;;;5.22;;
43986;SDS011;29650;47.378;8.300;2022-10-31T08:07:55;10.07;;;5.28;;
43986;SDS011;29650;47.378;8.300;2022-10-31T08:10:22;11.52;;;6.50;;
43986;SDS011;29650;47.378;8.300;2022-10-31T08:12:54;29.02;;;6.45;;
43986;SDS011;29650;47.378;8.300;2022-10-31T08:15:22;8.40;;;5.28;;
43986;SDS011;29650;47.378;8.300;2022-10-31T08:17:49;13.00;;;6.22;;
43986;SDS011;29650;47.378;8.300;2022-10-31T08:20:17;7.32;;;5.05;;
43986;SDS011;29650;47.378;8.300;2022-10-31T08:22:52;11.88;;;6.28;;
43986;SDS011;29650;47.378;8.300;2022-10-31T08:25:19;10.02;;;6.00;;
43986;SDS011;29650;47.378;8.300;2022-10-31T08:27:48;9.00;;;6.45;;
43986;SDS011;29650;47.378;8.300;2022-10-31T08:30:16;10.18;;;6.10;;
43986;SDS011;29650;47.378;8.300;2022-10-31T08:32:43;8.93;;;5.95;;
43986;SDS011;29650;47.378;8.300;2022-10-31T08:35:10;11.52;;;5.28;;
43986;SDS011;29650;47.378;8.300;2022-10-31T08:37:38;10.07;;;7.07;;
43986;SDS011;29650;47.378;8.300;2022-10-31T08:40:06;18.95;;;5.90;;
43986;SDS011;29650;47.378;8.300;2022-10-31T08:42:33;11.25;;;6.30;;
43986;SDS011;29650;47.378;8.300;2022-10-31T08:45:01;11.88;;;6.43;;
43986;SDS011;29650;47.378;8.300;2022-10-31T08:47:28;9.77;;;5.93;;
43986;SDS011;29650;47.378;8.300;2022-10-31T08:49:55;11.93;;;7.45;;
43986;SDS011;29650;47.378;8.300;2022-10-31T08:52:22;9.50;;;5.75;;
43986;SDS011;29650;47.378;8.300;2022-10-31T08:54:52;11.77;;;6.60;;
43986;SDS011;29650;47.378;8.300;2022-10-31T08:57:19;10.15;;;5.65;;
43986;SDS011;29650;47.378;8.300;2022-10-31T08:59:46;10.73;;;6.10;;
43986;SDS011;29650;47.378;8.300;2022-10-31T09:02:13;8.38;;;5.53;;
43986;SDS011;29650;47.378;8.300;2022-10-31T09:04:40;6.13;;;5.07;;
43986;SDS011;29650;47.378;8.300;2022-10-31T09:07:07;9.60;;;5.68;;
43986;SDS011;29650;47.378;8.300;2022-10-31T09:09:34;7.93;;;4.88;;
43986;SDS011;29650;47.378;8.300;2022-10-31T09:12:02;9.82;;;5.65;;
43986;SDS011;29650;47.378;8.300;2022-10-31T09:14:29;9.65;;;5.43;;
43986;SDS011;29650;47.378;8.300;2022-10-31T09:16:56;8.80;;;5.22;;
43986;SDS011;29650;47.378;8.300;2022-10-31T09:19:23;9.40;;;5.63;;
43986;SDS011;29650;47.378;8.300;2022-10-31T09:21:51;8.00;;;5.90;;
43986;SDS011;29650;47.378;8.300;2022-10-31T09:24:19;7.28;;;5.03;;
43986;SDS011;29650;47.378;8.300;2022-10-31T09:26:46;8.93;;;6.00;;
43986;SDS011;29650;47.378;8.300;2022-10-31T09:29:14;10.07;;;6.20;;
43986;SDS011;29650;47.378;8.300;2022-10-31T09:31:41;8.73;;;5.60;;
43986;SDS011;29650;47.378;8.300;2022-10-31T09:34:08;11.80;;;5.93;;
43986;SDS011;29650;47.378;8.300;2022-10-31T09:36:35;8.73;;;5.68;;
43986;SDS011;29650;47.378;8.300;2022-10-31T09:39:02;8.10;;;5.57;;
43986;SDS011;29650;47.378;8.300;2022-10-31T09:41:31;10.10;;;6.00;;
43986;SDS011;29650;47.378;8.300;2022-10-31T09:44:08;8.95;;;6.57;;
43986;SDS011;29650;47.378;8.300;2022-10-31T09:46:43;10.88;;;6.82;;
43986;SDS011;29650;47.378;8.300;2022-10-31T09:49:29;11.77;;;6.50;;
43986;SDS011;29650;47.378;8.300;2022-10-31T09:52:03;11.50;;;7.22;;
43986;SDS011;29650;47.378;8.300;2022-10-31T09:54:36;10.18;;;5.82;;
43986;SDS011;29650;47.378;8.300;2022-10-31T09:57:09;9.43;;;6.30;;
43986;SDS011;29650;47.378;8.300;2022-10-31T09:59:39;16.13;;;6.10;;
43986;SDS011;29650;47.378;8.300;2022-10-31T10:04:42;9.88;;;6.32;;
43986;SDS011;29650;47.378;8.300;2022-10-31T10:07:14;8.15;;;5.88;;
43986;SDS011;29650;47.378;8.300;2022-10-31T10:09:47;12.77;;;6.18;;
43986;SDS011;29650;47.378;8.300;2022-10-31T10:14:56;11.88;;;5.45;;
43986;SDS011;29650;47.378;8.300;2022-10-31T10:17:36;10.27;;;6.30;;
43986;SDS011;29650;47.378;8.300;2022-10-31T10:20:16;9.30;;;6.82;;
43986;SDS011;29650;47.378;8.300;2022-10-31T10:22:51;12.55;;;6.80;;
43986;SDS011;29650;47.378;8.300;2022-10-31T10:25:23;11.65;;;5.65;;
43986;SDS011;29650;47.378;8.300;2022-10-31T10:28:03;12.02;;;7.35;;
43986;SDS011;29650;47.378;8.300;2022-10-31T10:30:37;9.82;;;6.43;;
43986;SDS011;29650;47.378;8.300;2022-10-31T10:33:09;11.35;;;7.80;;
43986;SDS011;29650;47.378;8.300;2022-10-31T10:35:41;12.10;;;7.28;;
43986;SDS011;29650;47.378;8.300;2022-10-31T10:38:13;13.45;;;7.88;;
43986;SDS011;29650;47.378;8.300;2022-10-31T10:40:46;10.65;;;7.35;;
43986;SDS011;29650;47.378;8.300;2022-10-31T10:43:20;13.75;;;7.65;;
43986;SDS011;29650;47.378;8.300;2022-10-31T10:49:05;13.25;;;8.55;;
43986;SDS011;29650;47.378;8.300;2022-10-31T10:51:40;12.57;;;7.90;;
43986;SDS011;29650;47.378;8.300;2022-10-31T10:54:24;14.48;;;8.20;;
43986;SDS011;29650;47.378;8.300;2022-10-31T10:57:06;12.40;;;7.53;;
43986;SDS011;29650;47.378;8.300;2022-10-31T10:59:46;11.57;;;8.05;;
43986;SDS011;29650;47.378;8.300;2022-10-31T11:02:16;16.85;;;9.23;;
43986;SDS011;29650;47.378;8.300;2022-10-31T11:04:47;15.10;;;8.95;;
43986;SDS011;29650;47.378;8.300;2022-10-31T11:07:16;15.13;;;8.90;;
43986;SDS011;29650;47.378;8.300;2022-10-31T11:09:43;12.35;;;8.70;;
43986;SDS011;29650;47.378;8.300;2022-10-31T11:12:15;16.33;;;9.18;;
43986;SDS011;29650;47.378;8.300;2022-10-31T11:14:46;12.27;;;8.73;;
43986;SDS011;29650;47.378;8.300;2022-10-31T11:17:17;14.88;;;8.80;;
43986;SDS011;29650;47.378;8.300;2022-10-31T11:19:54;16.02;;;9.35;;
43986;SDS011;29650;47.378;8.300;2022-10-31T11:22:26;13.05;;;8.38;;
43986;SDS011;29650;47.378;8.300;2022-10-31T11:24:53;14.13;;;8.95;;
43986;SDS011;29650;47.378;8.300;2022-10-31T11:27:21;13.32;;;8.52;;
43986;SDS011;29650;47.378;8.300;2022-10-31T11:32:19;15.43;;;8.68;;
43986;SDS011;29650;47.378;8.300;2022-10-31T11:34:48;15.05;;;7.60;;
43986;SDS011;29650;47.378;8.300;2022-10-31T11:37:20;19.00;;;9.75;;
43986;SDS011;29650;47.378;8.300;2022-10-31T11:39:49;14.32;;;8.25;;
43986;SDS011;29650;47.378;8.300;2022-10-31T11:42:20;25.80;;;10.35;;
43986;SDS011;29650;47.378;8.300;2022-10-31T11:44:49;14.95;;;8.30;;
43986;SDS011;29650;47.378;8.300;2022-10-31T11:47:17;16.23;;;9.18;;
43986;SDS011;29650;47.378;8.300;2022-10-31T11:49:51;17.08;;;10.00;;
43986;SDS011;29650;47.378;8.300;2022-10-31T11:52:20;18.65;;;10.80;;
43986;SDS011;29650;47.378;8.300;2022-10-31T11:54:50;13.90;;;8.75;;
43986;SDS011;29650;47.378;8.300;2022-10-31T11:57:23;15.05;;;9.90;;
43986;SDS011;29650;47.378;8.300;2022-10-31T11:59:52;14.68;;;9.13;;
43986;SDS011;29650;47.378;8.300;2022-10-31T12:02:21;17.70;;;9.63;;
43986;SDS011;29650;47.378;8.300;2022-10-31T12:04:50;14.52;;;9.63;;
43986;SDS011;29650;47.378;8.300;2022-10-31T12:07:24;11.82;;;7.25;;
43986;SDS011;29650;47.378;8.300;2022-10-31T12:09:51;12.83;;;8.73;;
43986;SDS011;29650;47.378;8.300;2022-10-31T12:12:31;16.30;;;9.93;;
43986;SDS011;29650;47.378;8.300;2022-10-31T12:18:02;24.60;;;10.30;;
43986;SDS011;29650;47.378;8.300;2022-10-31T12:20:53;15.77;;;8.98;;
43986;SDS011;29650;47.378;8.300;2022-10-31T12:23:41;15.02;;;8.10;;
43986;SDS011;29650;47.378;8.300;2022-10-31T12:26:18;16.40;;;8.80;;
43986;SDS011;29650;47.378;8.300;2022-10-31T12:28:56;15.60;;;8.18;;
43986;SDS011;29650;47.378;8.300;2022-10-31T12:31:41;19.58;;;8.95;;
43986;SDS011;29650;47.378;8.300;2022-10-31T12:34:33;13.35;;;7.97;;
43986;SDS011;29650;47.378;8.300;2022-10-31T12:37:19;13.02;;;7.18;;
43986;SDS011;29650;47.378;8.300;2022-10-31T12:40:01;15.52;;;8.85;;
43986;SDS011;29650;47.378;8.300;2022-10-31T12:42:45;14.03;;;8.23;;
43986;SDS011;29650;47.378;8.300;2022-10-31T12:45:26;13.40;;;8.97;;
43986;SDS011;29650;47.378;8.300;2022-10-31T12:50:52;15.93;;;8.45;;
43986;SDS011;29650;47.378;8.300;2022-10-31T12:53:37;17.52;;;7.22;;
43986;SDS011;29650;47.378;8.300;2022-10-31T12:56:20;14.63;;;8.02;;
43986;SDS011;29650;47.378;8.300;2022-10-31T12:58:57;13.40;;;6.95;;
43986;SDS011;29650;47.378;8.300;2022-10-31T13:01:29;15.35;;;8.27;;
43986;SDS011;29650;47.378;8.300;2022-10-31T13:04:01;15.18;;;8.05;;
43986;SDS011;29650;47.378;8.300;2022-10-31T13:06:32;12.93;;;6.50;;
43986;SDS011;29650;47.378;8.300;2022-10-31T13:09:05;13.23;;;7.15;;
43986;SDS011;29650;47.378;8.300;2022-10-31T13:11:35;9.68;;;6.70;;
43986;SDS011;29650;47.378;8.300;2022-10-31T13:14:06;14.77;;;7.05;;
43986;SDS011;29650;47.378;8.300;2022-10-31T13:16:38;15.32;;;8.45;;
43986;SDS011;29650;47.378;8.300;2022-10-31T13:19:09;16.80;;;7.60;;
43986;SDS011;29650;47.378;8.300;2022-10-31T13:21:44;12.77;;;7.13;;
43986;SDS011;29650;47.378;8.300;2022-10-31T13:24:19;11.18;;;6.88;;
43986;SDS011;29650;47.378;8.300;2022-10-31T13:26:52;13.05;;;7.18;;
43986;SDS011;29650;47.378;8.300;2022-10-31T13:29:23;14.95;;;7.32;;
43986;SDS011;29650;47.378;8.300;2022-10-31T13:31:53;14.10;;;6.45;;
43986;SDS011;29650;47.378;8.300;2022-10-31T13:34:23;16.08;;;7.90;;
43986;SDS011;29650;47.378;8.300;2022-10-31T13:36:57;14.25;;;6.82;;
43986;SDS011;29650;47.378;8.300;2022-10-31T13:39:36;15.57;;;7.50;;
43986;SDS011;29650;47.378;8.300;2022-10-31T13:42:18;12.13;;;7.35;;
43986;SDS011;29650;47.378;8.300;2022-10-31T13:44:50;13.13;;;6.78;;
43986;SDS011;29650;47.378;8.300;2022-10-31T13:47:20;15.57;;;6.80;;
43986;SDS011;29650;47.378;8.300;2022-10-31T13:49:50;10.27;;;6.38;;
43986;SDS011;29650;47.378;8.300;2022-10-31T13:52:22;14.98;;;7.45;;
43986;SDS011;29650;47.378;8.300;2022-10-31T13:54:50;19.27;;;8.25;;
43986;SDS011;29650;47.378;8.300;2022-10-31T13:57:25;13.82;;;6.78;;
43986;SDS011;29650;47.378;8.300;2022-10-31T13:59:59;12.63;;;6.90;;
43986;SDS011;29650;47.378;8.300;2022-10-31T14:02:30;13.60;;;6.97;;
43986;SDS011;29650;47.378;8.300;2022-10-31T14:04:59;13.03;;;7.27;;
43986;SDS011;29650;47.378;8.300;2022-10-31T14:09:55;16.50;;;7.10;;
43986;SDS011;29650;47.378;8.300;2022-10-31T14:12:26;18.20;;;7.50;;
43986;SDS011;29650;47.378;8.300;2022-10-31T14:14:57;15.00;;;7.53;;
43986;SDS011;29650;47.378;8.300;2022-10-31T14:17:38;10.90;;;6.50;;
43986;SDS011;29650;47.378;8.300;2022-10-31T14:23:12;18.50;;;7.10;;
43986;SDS011;29650;47.378;8.300;2022-10-31T14:26:05;13.23;;;7.03;;
43986;SDS011;29650;47.378;8.300;2022-10-31T14:28:43;13.35;;;6.72;;
43986;SDS011;29650;47.378;8.300;2022-10-31T14:31:24;14.63;;;6.63;;
43986;SDS011;29650;47.378;8.300;2022-10-31T14:33:57;17.58;;;7.97;;
43986;SDS011;29650;47.378;8.300;2022-10-31T14:36:26;13.65;;;7.25;;
43986;SDS011;29650;47.378;8.300;2022-10-31T14:39:04;14.32;;;7.45;;
43986;SDS011;29650;47.378;8.300;2022-10-31T14:41:46;13.60;;;7.10;;
43986;SDS011;29650;47.378;8.300;2022-10-31T14:44:37;14.20;;;7.03;;
43986;SDS011;29650;47.378;8.300;2022-10-31T14:47:13;15.07;;;7.72;;
43986;SDS011;29650;47.378;8.300;2022-10-31T14:49:50;17.08;;;6.57;;
43986;SDS011;29650;47.378;8.300;2022-10-31T14:52:31;13.82;;;6.28;;
43986;SDS011;29650;47.378;8.300;2022-10-31T14:55:01;13.10;;;6.82;;
43986;SDS011;29650;47.378;8.300;2022-10-31T14:57:31;14.88;;;7.10;;
43986;SDS011;29650;47.378;8.300;2022-10-31T15:00:03;12.68;;;7.10;;
43986;SDS011;29650;47.378;8.300;2022-10-31T15:02:33;11.80;;;6.03;;
43986;SDS011;29650;47.378;8.300;2022-10-31T15:05:06;13.32;;;6.53;;
43986;SDS011;29650;47.378;8.300;2022-10-31T15:07:35;15.15;;;6.20;;
43986;SDS011;29650;47.378;8.300;2022-10-31T15:10:05;13.32;;;6.80;;
43986;SDS011;29650;47.378;8.300;2022-10-31T15:12:45;10.77;;;6.22;;
43986;SDS011;29650;47.378;8.300;2022-10-31T15:15:14;11.30;;;6.38;;
43986;SDS011;29650;47.378;8.300;2022-10-31T15:17:46;12.57;;;6.43;;
43986;SDS011;29650;47.378;8.300;2022-10-31T15:20:17;16.35;;;7.47;;
43986;SDS011;29650;47.378;8.300;2022-10-31T15:22:46;14.18;;;6.18;;
43986;SDS011;29650;47.378;8.300;2022-10-31T15:25:16;10.23;;;5.63;;
43986;SDS011;29650;47.378;8.300;2022-10-31T15:27:45;10.98;;;6.70;;